M I D A S
Marine Information and Data Acquisition System
Tripno 1684 of the Zeeleeuw from 2009-04-29 06:57:01 to 2009-04-29 15:12:57
Back to CruiseResearch ActivitiesStationsMapUnderway DataData graphs

EquipmentUnitsComment
TimeDGPSUTC
LatitudeDGPSDM.mWGS84
LongitudeDGPSDM.mWGS84
HeadingGyrodeg 
SOGDGPSknotsSpeed over ground
COGDGPSdegCourse over ground
DepthEcho soundermeters200 kHz
Missing or incorrect values are displayed as -999
Navigation data collected by the RV Zeeleeuw from 2009-04-29 06:58:23 to 2009-04-29 15:18:10
Time Latitude Longitude Heading SOG COG Depth
2009-04-29 06:59:32 51°13.682 2°55.893 116.2 3.5 298 -999
2009-04-29 07:00:32 51°13.711 2°55.803 123.7 4 301 -999
2009-04-29 07:01:32 51°13.759 2°55.72 145.5 4.4 323 -999
2009-04-29 07:02:32 51°13.821 2°55.659 154.5 4.3 332 -999
2009-04-29 07:03:32 51°13.887 2°55.627 183.2 4 357 -999
2009-04-29 07:04:32 51°13.942 2°55.651 221.2 1.8 29 -999
2009-04-29 07:05:32 51°13.953 2°55.61 294.1 3.8 305 4.6
2009-04-29 07:06:29 51°14.021 2°55.526 328.5 6.6 326 10.3
2009-04-29 07:07:29 51°14.12 2°55.423 329.5 7.3 327 10.3
2009-04-29 07:08:29 51°14.223 2°55.311 323.8 7.8 320 10.3
2009-04-29 07:09:28 51°14.316 2°55.154 313 8.7 310 10.3
2009-04-29 07:10:29 51°14.406 2°54.956 303.5 9.3 299 10.1
2009-04-29 07:11:28 51°14.478 2°54.728 302.3 10.2 296 10.5
2009-04-29 07:12:29 51°14.558 2°54.468 302.9 11.1 296 10.5
2009-04-29 07:13:28 51°14.638 2°54.206 301.6 11.2 295 10.7
2009-04-29 07:14:29 51°14.718 2°53.933 302.2 11.2 297 10.5
2009-04-29 07:15:28 51°14.804 2°53.677 303.4 11.2 299 9.9
2009-04-29 07:16:28 51°14.898 2°53.412 304 11.7 298 9.7
2009-04-29 07:17:29 51°14.989 2°53.127 302.2 11.9 298 9.8
2009-04-29 07:18:28 51°15.078 2°52.851 303.2 11.9 297 10.1
2009-04-29 07:19:29 51°15.168 2°52.565 301.8 11.9 295 10.4
2009-04-29 07:20:28 51°15.254 2°52.274 302 12.6 297 10.8
2009-04-29 07:21:29 51°15.35 2°51.967 302 12.7 297 11.3
2009-04-29 07:22:29 51°15.444 2°51.666 301.8 12.7 297 11.8
2009-04-29 07:23:29 51°15.54 2°51.362 301.5 12.9 297 12.2
2009-04-29 07:24:29 51°15.637 2°51.059 301.6 12.8 297 12.3
2009-04-29 07:25:29 51°15.732 2°50.755 301.4 12.8 297 12.4
2009-04-29 07:26:29 51°15.833 2°50.458 305.8 12.7 302 12.2
2009-04-29 07:27:28 51°15.964 2°50.213 326.7 12.2 321 9.9
2009-04-29 07:28:29 51°16.142 2°50.049 339.9 12.2 334 10.1
2009-04-29 07:29:28 51°16.323 2°49.911 340.1 12.3 335 10.5
2009-04-29 07:30:29 51°16.513 2°49.776 341.5 12.3 335 11.8
2009-04-29 07:31:28 51°16.692 2°49.629 337.4 12.3 330 13.1
2009-04-29 07:32:29 51°16.87 2°49.469 337 11.9 330 8.8
2009-04-29 07:33:29 51°17.042 2°49.3 334.4 12.2 329 10.7
2009-04-29 07:34:28 51°17.213 2°49.134 334.9 12.2 330 11.1
2009-04-29 07:35:29 51°17.391 2°48.966 335.2 12.3 329 11.3
2009-04-29 07:36:28 51°17.565 2°48.805 336.1 12.3 330 11.1
2009-04-29 07:37:29 51°17.742 2°48.637 334.4 12.3 328 9.2
2009-04-29 07:38:29 51°17.916 2°48.464 334.4 12.4 329 9.5
2009-04-29 07:39:29 51°18.093 2°48.292 334.9 12.5 329 9.7
2009-04-29 07:40:29 51°18.271 2°48.121 335.2 12.6 329 10.6
2009-04-29 07:41:28 51°18.445 2°47.949 335 12.4 328 12.8
2009-04-29 07:42:29 51°18.629 2°47.795 341.1 12.2 334 14.4
2009-04-29 07:43:28 51°18.805 2°47.641 338.9 12.3 332 16.1
2009-04-29 07:44:29 51°18.991 2°47.488 339.5 12.3 333 18.4
2009-04-29 07:45:28 51°19.166 2°47.334 338.3 12.2 332 19.9
2009-04-29 07:46:29 51°19.351 2°47.182 338.8 12.3 331 20.6
2009-04-29 07:47:28 51°19.528 2°47.029 336.9 12.3 331 20.8
2009-04-29 07:48:29 51°19.712 2°46.875 339.7 12.3 334 19.8
2009-04-29 07:49:29 51°19.89 2°46.728 338.5 12 333 17.3
2009-04-29 07:50:29 51°20.068 2°46.58 338.4 12.2 332 14.8
2009-04-29 07:51:29 51°20.246 2°46.422 337.3 12.3 330 12.8
2009-04-29 07:52:28 51°20.425 2°46.263 336.9 12.5 330 18.8
2009-04-29 07:53:29 51°20.609 2°46.098 336.6 12.4 331 19.9
2009-04-29 07:54:29 51°20.776 2°45.903 323.8 12.6 318 24.1
2009-04-29 07:55:29 51°20.927 2°45.67 321.3 12.6 317 24.4
2009-04-29 07:56:29 51°21.076 2°45.435 320.6 12.6 316 25.1
2009-04-29 07:57:29 51°21.229 2°45.215 326.2 12.2 320 25.1
2009-04-29 07:58:29 51°21.399 2°45.051 339.9 11.9 333 24
2009-04-29 07:59:29 51°21.579 2°44.912 341.9 12 335 22.1
2009-04-29 08:00:29 51°21.759 2°44.768 339.9 12.2 334 20.8
2009-04-29 08:01:28 51°21.939 2°44.626 339.4 12.2 333 21.8
2009-04-29 08:02:29 51°22.124 2°44.479 339 12.3 334 23
2009-04-29 08:03:29 51°22.307 2°44.334 338 12.2 333 23.5
2009-04-29 08:04:28 51°22.486 2°44.19 337.4 12.2 334 24.1
2009-04-29 08:05:29 51°22.67 2°44.043 338.3 12.1 333 23.1
2009-04-29 08:06:29 51°22.849 2°43.895 337.6 12.1 331 24.6
2009-04-29 08:07:29 51°23.024 2°43.734 337.5 12.2 331 26
2009-04-29 08:08:28 51°23.201 2°43.584 339.4 12.2 333 25.5
2009-04-29 08:09:29 51°23.384 2°43.438 341.3 12.1 334 24
2009-04-29 08:10:28 51°23.562 2°43.304 341.8 12.1 335 25.3
2009-04-29 08:11:29 51°23.748 2°43.159 340.5 12.2 334 24.7
2009-04-29 08:12:28 51°23.924 2°43.011 338.5 12.2 332 25.2
2009-04-29 08:13:29 51°24.108 2°42.861 339.6 12.2 332 25.3
2009-04-29 08:14:29 51°24.289 2°42.709 339 12.2 332 22.1
2009-04-29 08:15:29 51°24.467 2°42.556 337.1 12.2 331 22.8
2009-04-29 08:16:29 51°24.642 2°42.398 337.2 12.1 331 24.3
2009-04-29 08:17:29 51°24.82 2°42.245 338.1 12.1 332 24.3
2009-04-29 08:18:29 51°24.998 2°42.096 339.9 12 333 25.1
2009-04-29 08:19:29 51°25.178 2°41.951 340.4 12 334 24.8
2009-04-29 08:20:29 51°25.357 2°41.805 339.3 12 333 24.5
2009-04-29 08:21:29 51°25.534 2°41.655 337.1 12.1 332 25.4
2009-04-29 08:22:29 51°25.71 2°41.501 338.8 12 332 25.8
2009-04-29 08:23:29 51°25.887 2°41.351 338.3 12 332 26.2
2009-04-29 08:24:28 51°26.06 2°41.203 336.1 12 330 25.8
2009-04-29 08:25:29 51°26.235 2°41.035 335.5 12 329 29.7
2009-04-29 08:26:29 51°26.406 2°40.869 335.7 12 329 30.4
2009-04-29 08:27:29 51°26.577 2°40.702 334.3 12.1 327 28.9
2009-04-29 08:28:29 51°26.748 2°40.53 335.2 12.1 328 29.6
2009-04-29 08:29:29 51°26.918 2°40.357 334.2 12.1 327 29.7
2009-04-29 08:30:29 51°27.089 2°40.187 334.7 12.1 328 31.1
2009-04-29 08:31:29 51°27.26 2°40.02 334.6 12.1 328 33.9
2009-04-29 08:32:29 51°27.432 2°39.855 334.5 12 328 32
2009-04-29 08:33:28 51°27.604 2°39.703 336.7 12 332 31.2
2009-04-29 08:34:29 51°27.781 2°39.541 335.3 12.1 329 31.6
2009-04-29 08:35:29 51°27.954 2°39.377 335 12.1 330 32.3
2009-04-29 08:36:29 51°28.129 2°39.22 336.7 12 331 33.1
2009-04-29 08:37:29 51°28.31 2°39.097 354.6 11.5 353 35
2009-04-29 08:38:29 51°28.499 2°39.117 20.1 11.3 15 37.9
2009-04-29 08:39:29 51°28.635 2°39.306 58.9 10.9 61 32.6
2009-04-29 08:40:28 51°28.715 2°39.566 66 11.1 64 36.3
2009-04-29 08:41:29 51°28.793 2°39.842 68 11.2 67 32.2
2009-04-29 08:42:28 51°28.868 2°40.109 65.4 11.2 62 34.4
2009-04-29 08:43:29 51°28.963 2°40.372 61.1 11.1 59 32.3
2009-04-29 08:44:29 51°29.055 2°40.628 62.7 11.1 61 32.1
2009-04-29 08:45:29 51°29.147 2°40.883 62.5 11 60 32.1
2009-04-29 08:46:29 51°29.24 2°41.135 60.8 11 58 32
2009-04-29 08:47:29 51°29.334 2°41.388 62.8 11.1 60 32.2
2009-04-29 08:48:29 51°29.429 2°41.639 61.3 11 59 31.2
2009-04-29 08:49:29 51°29.523 2°41.892 62.4 11.1 60 33.1
2009-04-29 08:50:29 51°29.615 2°42.147 63.6 11 62 32.6
2009-04-29 08:51:29 51°29.695 2°42.381 62.5 9.4 60 32.8
2009-04-29 08:52:29 51°29.784 2°42.629 62.5 11.2 60 35.3
2009-04-29 08:53:29 51°29.875 2°42.891 62.7 11.2 61 30.4
2009-04-29 08:54:29 51°29.971 2°43.143 60.9 11 58 30.4
2009-04-29 08:55:29 51°30.063 2°43.397 63.6 10.9 61 30.7
2009-04-29 08:56:29 51°30.15 2°43.654 63 11 61 30.6
2009-04-29 08:57:29 51°30.243 2°43.905 60.5 11 59 34.3
2009-04-29 08:58:29 51°30.338 2°44.157 60.8 11 59 31
2009-04-29 08:59:29 51°30.432 2°44.407 58.9 11 57 30.3
2009-04-29 09:00:28 51°30.524 2°44.654 60.8 10.9 60 30.6
2009-04-29 09:01:28 51°30.62 2°44.901 59.6 10.9 58 29.9
2009-04-29 09:02:29 51°30.72 2°45.154 60 11 58 33.7
2009-04-29 09:03:29 51°30.818 2°45.4 58.8 11 57 33.5
2009-04-29 09:04:29 51°30.914 2°45.649 60.2 10.9 59 31.1
2009-04-29 09:05:28 51°31.005 2°45.896 61.5 10.9 61 30.8
2009-04-29 09:06:29 51°31.098 2°46.151 59.5 10.9 60 30.9
2009-04-29 09:07:29 51°31.192 2°46.398 58.9 10.8 57 28
2009-04-29 09:08:29 51°31.287 2°46.642 59.6 10.8 57 27.3
2009-04-29 09:09:29 51°31.377 2°46.89 61.1 10.8 61 28.1
2009-04-29 09:10:29 51°31.466 2°47.14 61.1 10.8 61 27.8
2009-04-29 09:11:29 51°31.553 2°47.391 61.2 10.7 61 28
2009-04-29 09:12:28 51°31.641 2°47.637 60.1 10.9 59 28.8
2009-04-29 09:13:28 51°31.733 2°47.884 59.3 10.8 59 29.3
2009-04-29 09:14:28 51°31.827 2°48.125 58.8 10.6 58 31.1
2009-04-29 09:15:28 51°31.918 2°48.369 60.5 10.8 62 32
2009-04-29 09:16:28 51°32.006 2°48.617 59.4 10.6 59 31.1
2009-04-29 09:17:28 51°32.097 2°48.859 59.5 10.6 59 31
2009-04-29 09:18:29 51°32.187 2°49.112 62.3 10.8 61 32.1
2009-04-29 09:19:28 51°32.275 2°49.358 61.4 10.7 60 27.9
2009-04-29 09:20:29 51°32.366 2°49.609 61.5 10.8 61 27.6
2009-04-29 09:21:28 51°32.454 2°49.853 59.5 10.7 59 30.2
2009-04-29 09:22:29 51°32.54 2°50.109 63.1 10.7 64 30.3
2009-04-29 09:23:29 51°32.619 2°50.366 64.9 10.7 65 30
2009-04-29 09:24:29 51°32.699 2°50.624 63.7 10.9 64 31.6
2009-04-29 09:25:29 51°32.78 2°50.882 63.2 10.8 63 32.6
2009-04-29 09:26:28 51°32.86 2°51.135 63.2 10.7 63 31.3
2009-04-29 09:27:29 51°32.943 2°51.393 62.7 10.6 62 27.5
2009-04-29 09:28:28 51°33.028 2°51.637 60.1 10.6 60 28.8
2009-04-29 09:29:28 51°33.118 2°51.883 59.7 10.7 60 31.4
2009-04-29 09:30:28 51°33.211 2°52.124 59.7 10.7 60 27.5
2009-04-29 09:31:28 51°33.299 2°52.372 61 10.7 61 29.7
2009-04-29 09:32:28 51°33.388 2°52.618 60.7 10.7 60 29.9
2009-04-29 09:33:28 51°33.479 2°52.862 59.4 10.6 59 27.4
2009-04-29 09:34:28 51°33.567 2°53.106 59.7 10.6 60 28.2
2009-04-29 09:35:28 51°33.659 2°53.344 58.7 10.5 58 29.4
2009-04-29 09:36:29 51°33.75 2°53.59 61.3 10.5 62 30.5
2009-04-29 09:37:28 51°33.834 2°53.831 61.1 10.5 60 29.2
2009-04-29 09:38:29 51°33.925 2°54.078 58.7 10.5 57 29.2
2009-04-29 09:39:28 51°34.014 2°54.314 61 10.6 61 30
2009-04-29 09:40:28 51°34.104 2°54.555 59.4 10.5 59 29.4
2009-04-29 09:41:29 51°34.19 2°54.806 60.4 10.6 60 29.3
2009-04-29 09:42:28 51°34.281 2°55.043 58.3 10.6 59 29.4
2009-04-29 09:43:29 51°34.379 2°55.282 59 10.6 58 30.4
2009-04-29 09:44:29 51°34.477 2°55.516 56.7 10.5 56 31.6
2009-04-29 09:45:29 51°34.574 2°55.752 56.9 10.6 57 30.3
2009-04-29 09:46:28 51°34.667 2°55.986 58 10.6 58 31.7
2009-04-29 09:47:28 51°34.761 2°56.223 58.8 10.5 59 32.2
2009-04-29 09:48:28 51°34.851 2°56.465 59.2 10.6 60 32.7
2009-04-29 09:49:28 51°34.935 2°56.707 59.7 10.3 60 33.2
2009-04-29 09:50:29 51°35.024 2°56.949 58.9 10.3 60 32.8
2009-04-29 09:51:28 51°35.111 2°57.182 58.3 10.4 59 33.5
2009-04-29 09:52:29 51°35.203 2°57.423 59.2 10.3 59 32.2
2009-04-29 09:53:29 51°35.295 2°57.656 56.5 10.3 57 33.9
2009-04-29 09:54:29 51°35.384 2°57.891 59 10.3 59 31.2
2009-04-29 09:55:29 51°35.472 2°58.128 58.7 10.3 59 33.3
2009-04-29 09:56:28 51°35.562 2°58.356 57.8 10.3 58 34.4
2009-04-29 09:57:28 51°35.655 2°58.587 56.1 10.3 56 31.8
2009-04-29 09:58:28 51°35.746 2°58.82 60.4 10.4 60 32.4
2009-04-29 09:59:29 51°35.832 2°59.067 62.4 10.4 65 33.1
2009-04-29 10:00:28 51°35.786 2°59.32 120 11.1 127 32.1
2009-04-29 10:01:29 51°35.654 2°59.549 128.5 11.6 135 30
2009-04-29 10:02:28 51°35.514 2°59.759 130.9 11.8 137 28.6
2009-04-29 10:03:28 51°35.371 2°59.974 129.9 11.9 139 28.5
2009-04-29 10:04:28 51°35.227 3°0.19 128.4 11.8 135 26.6
2009-04-29 10:05:28 51°35.088 3°0.414 127.8 11.9 134 24.4
2009-04-29 10:06:29 51°34.945 3°0.643 129.3 12 136 22.1
2009-04-29 10:07:28 51°34.805 3°0.862 129.1 11.9 135 17.8
2009-04-29 10:08:29 51°34.663 3°1.096 127.8 12 134 16.7
2009-04-29 10:09:28 51°34.518 3°1.313 139.6 12.3 150 15.9
2009-04-29 10:10:28 51°34.32 3°1.28 209.9 12.8 215 15.9
2009-04-29 10:11:28 51°34.191 3°1.01 245.4 12.9 241 14
2009-04-29 10:12:29 51°34.086 3°0.7 248.6 13 245 13.4
2009-04-29 10:13:28 51°34 3°0.39 251.9 12.9 246 12.1
2009-04-29 10:14:28 51°33.915 3°0.072 252.7 12.9 248 13.1
2009-04-29 10:15:29 51°33.83 2°59.747 253.1 13 247 15.6
2009-04-29 10:16:28 51°33.752 2°59.427 255.2 13.1 249 17.3
2009-04-29 10:17:29 51°33.669 2°59.097 252.4 13.2 248 18.9
2009-04-29 10:18:29 51°33.589 2°58.769 253.4 13.1 248 19
2009-04-29 10:19:29 51°33.51 2°58.443 253.9 13.1 248 18.3
2009-04-29 10:20:28 51°33.431 2°58.124 253.3 13.1 249 17.5
2009-04-29 10:21:29 51°33.351 2°57.793 254.3 13 249 20.2
2009-04-29 10:22:29 51°33.347 2°57.473 292.2 12 285 23.5
2009-04-29 10:23:28 51°33.398 2°57.164 292.3 12.3 284 25.3
2009-04-29 10:24:29 51°33.439 2°56.832 288.5 12.6 280 24.8
2009-04-29 10:25:28 51°33.463 2°56.502 283.2 12.8 274 26.6
2009-04-29 10:26:28 51°33.474 2°56.16 278.4 12.9 270 27.1
2009-04-29 10:27:28 51°33.465 2°55.813 272.9 13.1 265 25.6
2009-04-29 10:28:29 51°33.412 2°55.464 254.6 13.4 248 26.6
2009-04-29 10:29:28 51°33.322 2°55.139 250.7 13.6 246 23.3
2009-04-29 10:30:28 51°33.185 2°54.855 221.2 13.7 220 23.9
2009-04-29 10:31:29 51°32.983 2°54.709 185.2 13.3 190 25.1
2009-04-29 10:32:28 51°32.768 2°54.71 169.2 13.2 175 24
2009-04-29 10:33:29 51°32.544 2°54.738 168.8 13.3 175 23
2009-04-29 10:34:29 51°32.324 2°54.752 172.7 13.3 181 21.9
2009-04-29 10:35:29 51°32.113 2°54.657 202.8 13.5 205 20.6
2009-04-29 10:36:28 51°31.954 2°54.421 235.2 13.5 234 18.8
2009-04-29 10:37:29 51°31.84 2°54.106 246.1 13.5 243 21.3
2009-04-29 10:38:28 51°31.743 2°53.788 248.5 13.5 243 19.3
2009-04-29 10:39:29 51°31.64 2°53.46 246.4 13.5 243 20.9
2009-04-29 10:40:29 51°31.536 2°53.139 246.5 13.6 242 20.9
2009-04-29 10:41:28 51°31.434 2°52.824 247.2 13.5 242 19.4
2009-04-29 10:42:29 51°31.325 2°52.502 246.9 13.5 243 22.2
2009-04-29 10:43:29 51°31.217 2°52.187 244.7 13.4 242 19.9
2009-04-29 10:44:29 51°31.104 2°51.877 244.7 13.5 241 19.7
2009-04-29 10:45:29 51°30.992 2°51.566 244.3 13.4 239 19
2009-04-29 10:46:28 51°30.882 2°51.262 242.9 13.4 239 22.6
2009-04-29 10:47:28 51°30.77 2°50.952 243.2 13.4 240 23
2009-04-29 10:48:29 51°30.659 2°50.636 244.6 13.3 239 21.1
2009-04-29 10:49:29 51°30.552 2°50.323 245.6 13.4 242 23.1
2009-04-29 10:50:28 51°30.444 2°50.016 243.2 13.6 239 23.3
2009-04-29 10:51:29 51°30.327 2°49.703 243.2 13.3 239 22.9
2009-04-29 10:52:29 51°30.21 2°49.399 241.2 13.4 239 23.4
2009-04-29 10:53:29 51°30.093 2°49.093 242.9 13.4 239 23.3
2009-04-29 10:54:29 51°29.979 2°48.783 242 13.5 239 20.3
2009-04-29 10:55:29 51°29.864 2°48.476 241.8 13.5 239 22.3
2009-04-29 10:56:29 51°29.747 2°48.169 240.7 13.4 238 23.3
2009-04-29 10:57:28 51°29.631 2°47.871 240.8 13.4 239 20.8
2009-04-29 10:58:29 51°29.514 2°47.559 241.3 13.4 239 22.9
2009-04-29 10:59:29 51°29.398 2°47.251 242 13.4 240 24
2009-04-29 11:00:29 51°29.283 2°46.945 241.2 13.4 239 24.1
2009-04-29 11:01:29 51°29.17 2°46.638 243.1 13.4 240 23.3
2009-04-29 11:02:29 51°29.059 2°46.331 243.2 13.5 240 21.5
2009-04-29 11:03:29 51°28.963 2°46.01 252.7 13.2 248 23.2
2009-04-29 11:04:29 51°28.901 2°45.673 259.4 13.1 256 24.4
2009-04-29 11:05:29 51°28.854 2°45.333 262.4 13 258 26.2
2009-04-29 11:06:29 51°28.81 2°44.993 263.6 13 258 26.9
2009-04-29 11:07:29 51°28.732 2°44.666 248.9 13.2 245 28.3
2009-04-29 11:08:28 51°28.642 2°44.351 247.8 13.2 244 28.7
2009-04-29 11:09:29 51°28.528 2°44.04 240.6 13.4 238 28.9
2009-04-29 11:10:29 51°28.402 2°43.749 235.1 13.4 234 29.6
2009-04-29 11:11:29 51°28.278 2°43.457 238 13.3 236 30.2
2009-04-29 11:12:28 51°28.146 2°43.179 230.5 13.4 229 31.2
2009-04-29 11:13:29 51°27.993 2°42.914 227.6 13.4 227 31.1
2009-04-29 11:14:29 51°27.845 2°42.648 229.9 13.4 229 30.3
2009-04-29 11:15:29 51°27.699 2°42.38 230 13.4 231 29.5
2009-04-29 11:16:29 51°27.522 2°42.2 187.3 12.4 190 30.1
2009-04-29 11:17:28 51°27.35 2°42.296 139.2 11.4 147 29.9
2009-04-29 11:18:29 51°27.183 2°42.462 138.6 11.7 148 30.4
2009-04-29 11:19:29 51°27.016 2°42.624 140.1 11.7 148 31.2
2009-04-29 11:20:29 51°26.851 2°42.786 140 11.7 149 27.3
2009-04-29 11:21:29 51°26.681 2°42.942 141.6 11.8 151 25
2009-04-29 11:22:29 51°26.508 2°43.095 141 11.7 149 26.2
2009-04-29 11:23:29 51°26.419 2°43.319 90.5 9.5 91 25.1
2009-04-29 11:24:29 51°26.483 2°43.549 63.4 9.8 63 25.7
2009-04-29 11:25:29 51°26.56 2°43.778 62.5 9.8 61 22.9
2009-04-29 11:26:29 51°26.635 2°44.01 63.7 9.8 63 24.4
2009-04-29 11:27:29 51°26.707 2°44.244 65.7 9.9 66 24.9
2009-04-29 11:28:28 51°26.777 2°44.475 64 9.8 63 26
2009-04-29 11:29:29 51°26.851 2°44.712 64 9.8 64 28
2009-04-29 11:30:29 51°26.918 2°44.952 65.4 9.9 66 28.1
2009-04-29 11:31:29 51°26.988 2°45.189 64.8 9.8 65 28
2009-04-29 11:32:29 51°27.063 2°45.423 64 9.8 63 27.5
2009-04-29 11:33:29 51°27.144 2°45.65 60.5 9.8 60 28.7
2009-04-29 11:34:29 51°27.224 2°45.875 61.3 9.8 61 29
2009-04-29 11:35:28 51°27.3 2°46.099 61.7 9.7 61 29.4
2009-04-29 11:36:29 51°27.376 2°46.336 63.9 9.8 65 30
2009-04-29 11:37:29 51°27.45 2°46.571 61.5 9.9 61 30.6
2009-04-29 11:38:29 51°27.53 2°46.801 62.4 9.9 63 30
2009-04-29 11:39:29 51°27.606 2°47.035 62.6 9.9 62 31.3
2009-04-29 11:40:29 51°27.681 2°47.271 63.5 9.9 63 30.2
2009-04-29 11:41:29 51°27.757 2°47.506 63.2 9.9 63 30.4
2009-04-29 11:42:28 51°27.836 2°47.734 60.9 9.9 61 28
2009-04-29 11:43:29 51°27.922 2°47.966 59.2 9.9 57 28.4
2009-04-29 11:44:29 51°28.011 2°48.189 58.9 9.9 59 29.6
2009-04-29 11:45:29 51°28.098 2°48.418 59.2 10 57 29
2009-04-29 11:46:29 51°28.186 2°48.643 60.2 9.9 59 25.3
2009-04-29 11:47:29 51°28.267 2°48.873 61.7 9.9 61 27.5
2009-04-29 11:48:29 51°28.35 2°49.103 60.9 9.9 59 31.4
2009-04-29 11:49:29 51°28.437 2°49.333 61.2 10 60 29.5
2009-04-29 11:50:29 51°28.521 2°49.566 61.4 10.1 60 29.1
2009-04-29 11:51:29 51°28.607 2°49.797 60.4 10.1 59 25.5
2009-04-29 11:52:29 51°28.694 2°50.026 59.9 10.1 58 26.9
2009-04-29 11:53:29 51°28.779 2°50.259 61.8 10.2 60 26
2009-04-29 11:54:29 51°28.862 2°50.495 61.8 10.2 60 26.6
2009-04-29 11:55:29 51°28.947 2°50.733 60.9 10.3 59 27
2009-04-29 11:56:29 51°29.035 2°50.968 60 10.3 57 27.7
2009-04-29 11:57:29 51°29.12 2°51.205 63.2 10.3 62 30.1
2009-04-29 11:58:29 51°29.197 2°51.451 64.5 10.4 64 27.8
2009-04-29 11:59:29 51°29.276 2°51.696 62.5 10.3 62 28.8
2009-04-29 12:00:29 51°29.355 2°51.941 64.1 10.4 64 30.3
2009-04-29 12:01:29 51°29.435 2°52.187 63.4 10.4 61 30.1
2009-04-29 12:02:29 51°29.521 2°52.43 63 10.5 61 30.1
2009-04-29 12:03:29 51°29.607 2°52.674 62.6 10.5 60 30.8
2009-04-29 12:04:29 51°29.689 2°52.922 64.3 10.5 61 31.4
2009-04-29 12:05:29 51°29.776 2°53.166 64.5 10.6 64 31.5
2009-04-29 12:06:29 51°29.856 2°53.418 65.7 10.6 63 32
2009-04-29 12:07:29 51°29.933 2°53.674 65.8 10.6 64 32.2
2009-04-29 12:08:29 51°30.014 2°53.927 62.7 10.6 60 31.4
2009-04-29 12:09:29 51°30.102 2°54.171 62.3 10.6 61 31.3
2009-04-29 12:10:29 51°30.187 2°54.418 62.5 10.6 60 32.7
2009-04-29 12:11:29 51°30.274 2°54.664 62.5 10.6 60 33.6
2009-04-29 12:12:29 51°30.357 2°54.914 63.5 10.6 61 34.5
2009-04-29 12:13:29 51°30.437 2°55.164 63.9 10.5 64 36.1
2009-04-29 12:14:29 51°30.517 2°55.412 64 10.4 62 36.8
2009-04-29 12:15:29 51°30.594 2°55.662 64.4 10.5 64 35.9
2009-04-29 12:16:29 51°30.67 2°55.915 63.9 10.5 64 34.3
2009-04-29 12:17:29 51°30.747 2°56.166 63.4 10.4 64 34
2009-04-29 12:18:29 51°30.828 2°56.411 61 10.4 61 32.1
2009-04-29 12:19:29 51°30.915 2°56.65 59.2 10.4 59 33
2009-04-29 12:20:29 51°31.001 2°56.889 61.2 10.4 62 31.7
2009-04-29 12:21:29 51°31.081 2°57.135 61.4 10.4 62 31.2
2009-04-29 12:22:29 51°31.162 2°57.382 61.5 10.4 62 31.6
2009-04-29 12:23:29 51°31.248 2°57.624 59.5 10.4 60 30.5
2009-04-29 12:24:29 51°31.337 2°57.864 59.4 10.5 60 29.8
2009-04-29 12:25:29 51°31.42 2°58.111 61.3 10.6 63 30.5
2009-04-29 12:26:29 51°31.503 2°58.361 60.3 10.6 61 30.6
2009-04-29 12:27:29 51°31.587 2°58.61 59.9 10.6 61 29.9
2009-04-29 12:28:29 51°31.674 2°58.853 59.8 10.6 61 30
2009-04-29 12:29:29 51°31.758 2°59.101 61.8 10.6 63 29.6
2009-04-29 12:30:29 51°31.842 2°59.349 58.3 10.5 58 28.9
2009-04-29 12:31:29 51°31.932 2°59.591 56.9 10.6 58 28.4
2009-04-29 12:32:29 51°32.024 2°59.832 58.6 10.6 60 27.8
2009-04-29 12:33:29 51°32.115 3°0.073 57.2 10.6 58 28.1
2009-04-29 12:34:29 51°32.2 3°0.323 60.7 10.7 64 27.3
2009-04-29 12:35:29 51°32.283 3°0.575 59.6 10.7 62 26.3
2009-04-29 12:36:29 51°32.367 3°0.83 59.6 10.9 61 25.2
2009-04-29 12:37:29 51°32.451 3°1.088 61.2 11 65 25.4
2009-04-29 12:38:29 51°32.532 3°1.35 60.5 11 62 23.5
2009-04-29 12:39:29 51°32.617 3°1.608 59.7 10.9 62 23.1
2009-04-29 12:40:29 51°32.699 3°1.87 61.8 11.1 63 22.3
2009-04-29 12:41:29 51°32.786 3°2.131 58.2 11 61 22.8
2009-04-29 12:42:29 51°32.876 3°2.387 57.3 11 60 19.5
2009-04-29 12:43:29 51°32.965 3°2.646 59.2 11.1 61 21.2
2009-04-29 12:44:29 51°33.054 3°2.905 58.5 11.1 61 21.6
2009-04-29 12:45:29 51°33.142 3°3.164 65.4 11.1 68 21.4
2009-04-29 12:46:29 51°33.116 3°3.46 109 11.8 115 20.9
2009-04-29 12:47:29 51°32.986 3°3.709 130.9 12.3 135 22.5
2009-04-29 12:48:29 51°32.84 3°3.94 132.7 12.4 135 28.1
2009-04-29 12:49:29 51°32.692 3°4.168 133 12.3 135 32
2009-04-29 12:50:29 51°32.543 3°4.39 133.9 12.2 138 31.7
2009-04-29 12:51:29 51°32.393 3°4.606 134 12.1 139 29.3
2009-04-29 12:52:29 51°32.24 3°4.819 132.8 12.1 138 28
2009-04-29 12:53:29 51°32.087 3°5.034 134.8 12.2 139 28.5
2009-04-29 12:54:29 51°31.906 3°5.177 162.7 12.5 171 28.5
2009-04-29 12:55:29 51°31.702 3°5.116 205.8 12.7 209 28.4
2009-04-29 12:56:29 51°31.566 3°4.859 243.4 12.8 242 29.1
2009-04-29 12:57:29 51°31.484 3°4.542 252.4 12.9 247 28.4
2009-04-29 12:58:29 51°31.394 3°4.228 247.8 13 244 28.3
2009-04-29 12:59:29 51°31.297 3°3.918 244.8 13 243 28.7
2009-04-29 13:00:29 51°31.201 3°3.607 246.5 13 244 29.1
2009-04-29 13:01:29 51°31.089 3°3.31 238.2 13.1 235 28.8
2009-04-29 13:02:29 51°30.974 3°3.014 241 13.1 239 28.3
2009-04-29 13:03:29 51°30.859 3°2.717 239.4 13.1 238 28.3
2009-04-29 13:04:29 51°30.748 3°2.419 241.8 13 240 28.2
2009-04-29 13:05:29 51°30.637 3°2.119 242.2 13 240 28.4
2009-04-29 13:06:29 51°30.53 3°1.817 243.2 13 240 28.4
2009-04-29 13:07:29 51°30.421 3°1.517 242.3 13 239 28.3
2009-04-29 13:08:29 51°30.318 3°1.213 245.1 13 243 28.3
2009-04-29 13:09:29 51°30.213 3°0.911 244.7 13 241 28.4
2009-04-29 13:10:29 51°30.105 3°0.613 242.2 12.9 240 28.4
2009-04-29 13:11:29 51°30 3°0.313 243.1 12.9 240 27.7
2009-04-29 13:12:29 51°29.895 3°0.014 242.9 12.8 241 27.4
2009-04-29 13:13:29 51°29.794 2°59.713 244.8 12.9 242 27.9
2009-04-29 13:14:29 51°29.688 2°59.417 240.4 12.7 239 27.9
2009-04-29 13:15:29 51°29.579 2°59.124 241.2 12.8 240 26.9
2009-04-29 13:16:29 51°29.472 2°58.83 240.9 12.8 239 27.1
2009-04-29 13:17:29 51°29.366 2°58.536 242 12.8 240 27.6
2009-04-29 13:18:29 51°29.259 2°58.244 239.3 12.7 237 27.2
2009-04-29 13:19:29 51°29.149 2°57.953 241.2 12.8 240 26.4
2009-04-29 13:20:29 51°29.041 2°57.661 241.1 12.7 239 27.3
2009-04-29 13:21:29 51°28.935 2°57.366 241.8 12.7 241 27.2
2009-04-29 13:22:29 51°28.831 2°57.072 240.9 12.7 239 27.2
2009-04-29 13:23:29 51°28.723 2°56.783 240.1 12.6 239 26.3
2009-04-29 13:24:29 51°28.622 2°56.486 243.2 12.7 243 27.3
2009-04-29 13:25:29 51°28.521 2°56.189 240.8 12.7 240 25.6
2009-04-29 13:26:29 51°28.411 2°55.902 237.3 12.6 237 26.8
2009-04-29 13:27:29 51°28.299 2°55.618 239 12.6 240 26.9
2009-04-29 13:28:29 51°28.189 2°55.331 238.7 12.6 238 25.4
2009-04-29 13:29:29 51°28.078 2°55.046 239.6 12.6 240 25.6
2009-04-29 13:30:29 51°27.968 2°54.762 238.3 12.6 237 24.3
2009-04-29 13:31:29 51°27.858 2°54.479 238.2 12.5 238 23.5
2009-04-29 13:32:29 51°27.748 2°54.197 239.4 12.5 239 24.6
2009-04-29 13:33:29 51°27.636 2°53.918 237.4 12.4 237 23.2
2009-04-29 13:34:29 51°27.529 2°53.635 240.1 12.4 239 24.5
2009-04-29 13:35:29 51°27.423 2°53.35 240.3 12.4 241 24.2
2009-04-29 13:36:29 51°27.317 2°53.066 239.8 12.4 239 24.9
2009-04-29 13:37:29 51°27.214 2°52.781 240.2 12.4 238 23.9
2009-04-29 13:38:29 51°27.111 2°52.497 241.6 12.3 240 23.4
2009-04-29 13:39:29 51°27.008 2°52.216 240.4 12.2 241 24.7
2009-04-29 13:40:29 51°26.911 2°51.933 242.2 12.1 242 27
2009-04-29 13:41:29 51°26.811 2°51.655 238.4 12 239 25.5
2009-04-29 13:42:29 51°26.707 2°51.383 239 12 240 25.3
2009-04-29 13:43:29 51°26.604 2°51.11 239 12 239 27.4
2009-04-29 13:44:29 51°26.5 2°50.833 239.2 12.2 239 24.7
2009-04-29 13:45:29 51°26.388 2°50.562 239 12.1 238 25.2
2009-04-29 13:46:29 51°26.278 2°50.293 237.3 12.1 235 25.2
2009-04-29 13:47:29 51°26.172 2°50.022 239.9 12 239 25.2
2009-04-29 13:48:29 51°26.073 2°49.744 241.8 11.9 241 25
2009-04-29 13:49:29 51°25.973 2°49.47 241.3 12 240 25
2009-04-29 13:50:29 51°25.869 2°49.202 238.2 11.9 238 25.5
2009-04-29 13:51:29 51°25.766 2°48.935 240.3 11.8 240 26.1
2009-04-29 13:52:29 51°25.664 2°48.668 239.4 11.7 239 25.8
2009-04-29 13:53:29 51°25.564 2°48.399 239.8 11.8 240 25.5
2009-04-29 13:54:29 51°25.463 2°48.132 241.1 11.7 239 28.5
2009-04-29 13:55:29 51°25.367 2°47.861 241.5 11.7 240 28.4
2009-04-29 13:56:29 51°25.27 2°47.591 241.7 11.6 241 28.8
2009-04-29 13:57:29 51°25.17 2°47.33 238.4 11.3 237 26.8
2009-04-29 13:58:29 51°25.071 2°47.077 238.8 11.2 238 26.8
2009-04-29 13:59:29 51°24.973 2°46.821 240.7 11.2 238 26.7
2009-04-29 14:00:29 51°24.872 2°46.572 239.8 11.1 237 26.7
2009-04-29 14:01:29 51°24.772 2°46.32 239.2 11.3 237 27
2009-04-29 14:02:29 51°24.672 2°46.071 239.8 11.1 240 26.8
2009-04-29 14:03:29 51°24.574 2°45.822 239.4 11 239 27.4
2009-04-29 14:04:29 51°24.474 2°45.576 237.4 11 235 28.2
2009-04-29 14:05:29 51°24.373 2°45.333 238 11 239 28.7
2009-04-29 14:06:29 51°24.259 2°45.112 215.8 10.7 210 27.7
2009-04-29 14:07:29 51°24.086 2°45.039 183.5 11 177 28.4
2009-04-29 14:08:29 51°23.912 2°45.142 154 11.5 150 29.1
2009-04-29 14:09:29 51°23.757 2°45.324 144.6 11.7 141 29.2
2009-04-29 14:10:29 51°23.604 2°45.514 147.8 11.6 145 29.6
2009-04-29 14:11:29 51°23.445 2°45.689 151.2 11.5 148 29.3
2009-04-29 14:12:29 51°23.285 2°45.858 150.7 11.6 146 28.7
2009-04-29 14:13:29 51°23.126 2°46.033 149 11.7 145 26.4
2009-04-29 14:14:29 51°22.954 2°46.142 180.1 11 178 25.9
2009-04-29 14:15:29 51°22.77 2°46.126 188.1 11.2 184 26.3
2009-04-29 14:16:29 51°22.585 2°46.098 189.5 11.2 186 25.1
2009-04-29 14:17:29 51°22.399 2°46.085 182.3 11.3 177 24.1
2009-04-29 14:18:29 51°22.213 2°46.136 169.1 11.5 163 21.7
2009-04-29 14:19:29 51°22.04 2°46.278 152.1 11.9 145 23.7
2009-04-29 14:20:29 51°21.884 2°46.478 147.3 12.1 141 25.7
2009-04-29 14:21:29 51°21.726 2°46.677 149.4 12 143 27.1
2009-04-29 14:22:29 51°21.563 2°46.862 148.9 12.1 142 27.4
2009-04-29 14:23:29 51°21.408 2°47.059 148.5 11.9 142 26.4
2009-04-29 14:24:29 51°21.252 2°47.255 148.1 12 141 25.4
2009-04-29 14:25:29 51°21.096 2°47.452 148.7 12 143 23.4
2009-04-29 14:26:29 51°20.938 2°47.647 147.4 12 143 20.4
2009-04-29 14:27:29 51°20.781 2°47.837 147.9 11.6 143 21.3
2009-04-29 14:28:29 51°20.628 2°48.026 146.8 11.5 141 22.6
2009-04-29 14:29:29 51°20.476 2°48.212 147.7 11.5 142 24.1
2009-04-29 14:30:29 51°20.325 2°48.402 149.3 11.5 143 24.9
2009-04-29 14:31:29 51°20.171 2°48.589 148.9 11.6 142 25
2009-04-29 14:32:29 51°20.019 2°48.778 147.7 11.6 143 24.6
2009-04-29 14:33:29 51°19.866 2°48.969 148.5 11.6 142 22.5
2009-04-29 14:34:29 51°19.713 2°49.16 148.7 11.7 142 20.3
2009-04-29 14:35:29 51°19.56 2°49.355 147.5 11.9 142 17.9
2009-04-29 14:36:29 51°19.406 2°49.551 147.9 11.8 142 16.8
2009-04-29 14:37:29 51°19.251 2°49.749 148.5 11.9 141 14.9
2009-04-29 14:38:29 51°19.094 2°49.947 148.3 12.1 141 13.8
2009-04-29 14:39:29 51°18.939 2°50.151 146.9 12.1 141 15.6
2009-04-29 14:40:29 51°18.783 2°50.351 149.1 11.9 141 16.9
2009-04-29 14:41:29 51°18.63 2°50.553 146.8 11.9 139 17.1
2009-04-29 14:42:29 51°18.478 2°50.752 147.4 11.9 140 16.7
2009-04-29 14:43:29 51°18.323 2°50.947 147.9 11.9 142 16
2009-04-29 14:44:29 51°18.17 2°51.144 148 11.9 140 15.2
2009-04-29 14:45:29 51°18.016 2°51.338 148.7 11.7 143 14.1
2009-04-29 14:46:29 51°17.861 2°51.53 149 11.8 141 13.1
2009-04-29 14:47:29 51°17.707 2°51.726 147 11.8 141 12.9
2009-04-29 14:48:29 51°17.553 2°51.92 151.1 11.7 145 13.2
2009-04-29 14:49:29 51°17.388 2°52.086 155.9 11.7 149 14.1
2009-04-29 14:50:29 51°17.22 2°52.245 158.1 11.7 150 13.4
2009-04-29 14:51:29 51°17.052 2°52.406 156.4 11.7 149 12.6
2009-04-29 14:52:29 51°16.884 2°52.564 157.6 11.7 151 12.7
2009-04-29 14:53:29 51°16.717 2°52.724 156.1 11.8 148 13.2
2009-04-29 14:54:29 51°16.55 2°52.881 156.2 11.4 149 14.4
2009-04-29 14:55:29 51°16.384 2°53.03 158.9 11.5 151 14.7
2009-04-29 14:56:29 51°16.216 2°53.178 159 11.5 151 14.6
2009-04-29 14:57:29 51°16.047 2°53.325 159 11.6 152 14.4
2009-04-29 14:58:29 51°15.88 2°53.476 157.9 11.5 151 14.2
2009-04-29 14:59:29 51°15.712 2°53.621 159.9 11.4 152 14.6
2009-04-29 15:00:29 51°15.544 2°53.759 161.4 11.3 156 14
2009-04-29 15:01:29 51°15.373 2°53.885 163.1 11.3 156 12.5
2009-04-29 15:02:29 51°15.203 2°54.014 162.2 11.3 155 11.9
2009-04-29 15:03:29 51°15.032 2°54.144 162 11.4 155 11.7
2009-04-29 15:04:29 51°14.87 2°54.296 156.1 11.4 147 12.3
2009-04-29 15:05:29 51°14.717 2°54.485 149.9 11.7 141 13
2009-04-29 15:06:29 51°14.564 2°54.68 148.5 11.8 139 12.9
2009-04-29 15:07:29 51°14.432 2°54.899 139.8 11.2 131 13.5
2009-04-29 15:08:29 51°14.332 2°55.101 133.5 8.1 131 13.5
2009-04-29 15:09:29 51°14.251 2°55.255 131.3 7.4 132 13.2
2009-04-29 15:10:29 51°14.158 2°55.38 147.1 7.3 148 13.2
2009-04-29 15:11:29 51°14.048 2°55.467 154.7 7.4 154 13.2
2009-04-29 15:12:29 51°13.939 2°55.547 155.8 6.4 155 13.3
2009-04-29 15:13:33 51°13.846 2°55.617 155.1 5.4 155 -999
2009-04-29 15:14:31 51°13.779 2°55.678 144.4 4.1 143 13.1
2009-04-29 15:15:29 51°13.736 2°55.748 130.3 3.7 131 14.1
2009-04-29 15:16:29 51°13.701 2°55.819 123.5 3.1 123 11.9
2009-04-29 15:17:33 51°13.682 2°55.893 112.3 2.9 109 -999